Pagrindinis puslapis
METAR-TAF:

METAR-TAF

Oro uostai :

Puerto Natalesas, Čilė

platuma: 51-40-15S, ilguma: 072-31-42W, Aukštis: 66 m

Dabartinis oras

Ataskaita buvo paskelbta 23 valandos ir 55 minutes, ne 23:00 UTC
Vėjas 3 kt iš Šiaurės Vakarų, svyruoja nuo Vakarų/Šiaurės Vakarų ir Šiaurės
Temperatūra -2°C
Drėgmė 63%
Slėgis 996 hPa
Matomumas 10 km arba daugiau
Su prošvaistėmis ne aukštis 6000 ft
Su prošvaistėmis ne aukštis 10000 ft

METAR: SCNT 012300Z 32003KT 290V350 9999 BKN060 BKN100 M02/M08 Q0996

Laikas: 18:55 (22:55 UTC)

Prognozė

Ataskaita buvo paskelbta 36 valandos ir 34 minutes, ne 10:21 UTC
Prognozė galioja nuo 01 metu 12 UTC su 02 metu 00 UTC
Vėjas 3 kt iš Vakarų
Matomumas 10 km arba daugiau
Mažai debesys ne aukštis 3800 ft
Tapsmas
nuo 01 metu 12 UTC su 01 metu 14 UTC
Vėjas 6 kt iš Šiaurės/Šiaurės Vakarų
Laikinai
nuo 01 metu 17 UTC su 01 metu 21 UTC
Vėjas 10 kt iš Šiaurės

TAF: SCNT 011021Z 0112/0200 27003KT 9999 FEW038 TNM06/0112Z TX03/0118Z BECMG 0112/0114 33006KT TEMPO 0117/0121 01010KT

Orai ataskaitas ir orų prognozės (METAR, TAF).

turimą stotys yra geltonos ir raudonos taškus žemėlapyje.

Perkelti pele per norėdami pamatyti stoties vardą.

Tada spustelėkite, norėdami matyti oro stebėjimo ir prognozės.

Norėdami pakeisti žemėlapį: spustelėkite ant žalios mygtukų su juodo kryžiaus žemyn,; žalią mygtuką su brūkšneliu, jei norite nutolinti; arba žalių rodyklių gretimoms žemėlapius.


METAR-TAF: